Sao Valentim, Brazil
Current Conditions -  °F | °C
As of 9:00 AM on Friday 24 Oct 2014 (Local Time) from SBCH Reporting Station
Clear Clear  
Wind Chill: 72°   Ceiling: Unl
Heat Index: 72°   Visibility: 6mi
Dew Point: 54°   Wind: 9mph
Humidity: 53%   Direction: 90°E
Pressure: 30"   Gusts: NA
Location:  27.56°S, 52.52°W
Report Text: SBCH 241100Z 09008KT CAVOK 22/12 Q1016
Loading
Personal Weather Stations






























Interactive Weather Map
Tropical Storm Tracking
New forecast layout! Learn more

10-Day Weather Forecast

Advertisements
Track Severe Weather on mobile